Time;durP1;ratioP1;P1;durP2;ratioP2;P2;SDS_P1;SDS_P2;PMS_P1;PMS_P2;Temp;Humidity;BMP_temperature;BMP_pressure;BME280_temperature;BME280_humidity;BME280_pressure;Samples;Min_cycle;Max_cycle;Signal;HPM_P1;HPM_P2
2022/07/16 00:05:41;;;;;;;5.60;3.08;;;;;;;11.60;60.10;100691.23;3493996;80;20971;-76
2022/07/16 00:10:34;;;;;;;7.25;2.77;;;;;;;11.56;60.31;100705.52;3559029;79;21606;-76
2022/07/16 00:15:26;;;;;;;4.58;3.10;;;;;;;11.47;60.36;100696.30;3521467;79;21099;-76
2022/07/16 00:20:19;;;;;;;7.85;4.00;;;;;;;11.42;60.65;100698.39;3590485;78;20997;-76
2022/07/16 00:25:11;;;;;;;3.55;2.60;;;;;;;11.40;60.80;100696.20;3568279;79;21009;-76
2022/07/16 00:30:05;;;;;;;5.87;2.90;;;;;;;11.31;61.09;100705.19;3573291;77;21468;-76
2022/07/16 00:34:57;;;;;;;7.62;3.70;;;;;;;11.26;61.41;100705.55;3590815;78;20908;-75
2022/07/16 00:39:50;;;;;;;7.75;4.37;;;;;;;11.19;61.28;100702.41;3558057;77;20934;-76
2022/07/16 00:44:42;;;;;;;7.50;4.45;;;;;;;11.16;61.59;100702.36;3595327;77;20958;-75
2022/07/16 00:49:34;;;;;;;6.17;3.47;;;;;;;11.12;61.63;100701.87;3602657;77;20934;-76
2022/07/16 00:54:26;;;;;;;5.00;3.33;;;;;;;11.10;61.84;100697.08;3555101;78;21001;-76
2022/07/16 00:59:18;;;;;;;5.80;3.17;;;;;;;11.06;61.82;100690.52;3553031;77;20900;-76
2022/07/16 01:04:11;;;;;;;4.35;3.92;;;;;;;11.05;62.20;100693.09;3603711;77;21000;-75
2022/07/16 01:09:03;;;;;;;6.75;3.95;;;;;;;11.03;62.29;100688.30;3604577;77;20949;-76
2022/07/16 01:13:55;;;;;;;5.80;4.08;;;;;;;11.07;62.52;100691.42;3547097;77;21441;-75
2022/07/16 01:18:47;;;;;;;6.03;3.37;;;;;;;11.10;62.77;100690.58;3578627;78;21006;-76
2022/07/16 01:23:40;;;;;;;4.70;3.52;;;;;;;11.10;62.72;100686.67;3554804;79;21421;-76
2022/07/16 01:28:33;;;;;;;5.75;3.87;;;;;;;11.17;62.75;100676.80;3430844;79;21013;-75
2022/07/16 01:33:29;;;;;;;7.05;4.47;;;;;;;11.22;62.87;100680.34;3512464;79;20977;-76
2022/07/16 01:38:21;;;;;;;7.55;5.33;;;;;;;11.30;63.04;100683.91;3515881;79;20973;-76
2022/07/16 01:43:17;;;;;;;7.60;5.25;;;;;;;11.34;63.09;100668.80;3461620;79;20857;-76
2022/07/16 01:48:12;;;;;;;5.90;4.62;;;;;;;11.40;63.51;100672.77;3527937;79;20982;-76
2022/07/16 01:53:05;;;;;;;5.95;4.40;;;;;;;11.47;63.48;100672.86;3483424;79;21013;-75
2022/07/16 01:57:58;;;;;;;8.75;4.80;;;;;;;11.45;63.60;100672.84;3445165;79;20938;-76
2022/07/16 02:02:50;;;;;;;7.03;5.25;;;;;;;11.53;63.75;100662.52;3554683;79;20955;-76
2022/07/16 02:07:42;;;;;;;8.20;5.50;;;;;;;11.62;63.52;100660.02;3478596;79;20943;-76
2022/07/16 02:12:35;;;;;;;8.55;5.40;;;;;;;11.70;63.63;100650.57;3549601;78;20995;-76
2022/07/16 02:17:27;;;;;;;6.90;5.00;;;;;;;11.75;63.59;100651.50;3556469;79;21004;-76
2022/07/16 02:22:19;;;;;;;8.53;5.85;;;;;;;11.82;63.81;100657.22;3520551;77;20954;-76
2022/07/16 02:27:11;;;;;;;6.75;4.87;;;;;;;11.88;63.88;100656.84;3521194;78;20888;-76
2022/07/16 02:32:04;;;;;;;9.23;6.22;;;;;;;11.94;63.84;100649.11;3532877;79;20945;-76
2022/07/16 02:36:56;;;;;;;9.25;6.00;;;;;;;11.95;63.78;100650.87;3541290;79;21489;-76
2022/07/16 02:41:48;;;;;;;8.40;5.10;;;;;;;11.96;63.75;100644.79;3554685;79;21242;-76
2022/07/16 02:46:40;;;;;;;6.53;5.00;;;;;;;12.00;63.99;100645.25;3493671;79;20938;-76
2022/07/16 02:51:32;;;;;;;9.85;5.78;;;;;;;12.03;64.01;100642.69;3566380;77;20970;-76
2022/07/16 02:56:24;;;;;;;8.48;6.47;;;;;;;12.11;63.83;100642.34;3559596;77;21441;-76
2022/07/16 03:01:16;;;;;;;10.20;5.97;;;;;;;12.13;63.94;100642.36;3534769;79;20939;-76
2022/07/16 03:06:09;;;;;;;11.83;5.87;;;;;;;12.15;64.13;100645.85;3545689;77;21450;-76
2022/07/16 03:11:01;;;;;;;9.18;6.25;;;;;;;12.12;64.20;100644.52;3537848;78;20979;-76
2022/07/16 03:15:53;;;;;;;7.67;5.72;;;;;;;12.15;64.52;100638.90;3555732;78;20931;-76
2022/07/16 03:20:46;;;;;;;9.95;6.42;;;;;;;12.17;64.40;100641.09;3528575;78;20928;-76
2022/07/16 03:25:38;;;;;;;9.83;6.67;;;;;;;12.23;64.54;100646.78;3555229;78;21442;-76
2022/07/16 03:30:30;;;;;;;9.68;5.60;;;;;;;12.27;64.38;100637.25;3505276;79;21010;-76
2022/07/16 03:35:22;;;;;;;10.25;5.47;;;;;;;12.34;64.47;100632.53;3509658;79;21285;-76
2022/07/16 03:40:15;;;;;;;7.40;5.85;;;;;;;12.45;64.77;100635.23;3551286;79;21456;-76
2022/07/16 03:45:08;;;;;;;6.33;5.17;;;;;;;12.52;64.27;100630.50;3486815;79;20934;-76
2022/07/16 03:50:00;;;;;;;9.45;5.60;;;;;;;12.56;64.31;100627.95;3442229;78;21528;-76
2022/07/16 03:54:52;;;;;;;7.37;5.17;;;;;;;12.67;64.29;100619.33;3473866;79;21465;-77
2022/07/16 03:59:44;;;;;;;9.30;6.05;;;;;;;12.80;64.25;100622.88;3523014;79;20959;-77
2022/07/16 04:04:36;;;;;;;6.70;4.95;;;;;;;12.87;64.28;100622.92;3508971;79;22652;-77
2022/07/16 04:09:28;;;;;;;6.75;4.97;;;;;;;13.00;64.41;100628.22;3504564;79;20991;-77
2022/07/16 04:14:21;;;;;;;8.28;4.90;;;;;;;13.10;64.41;100619.58;3515268;79;20864;-77
2022/07/16 04:19:13;;;;;;;6.70;4.65;;;;;;;13.23;64.23;100617.45;3534767;79;21065;-77
2022/07/16 04:24:06;;;;;;;6.80;5.30;;;;;;;13.30;64.14;100620.53;3584458;77;20977;-77
2022/07/16 04:28:58;;;;;;;5.80;5.20;;;;;;;13.40;64.20;100621.94;3584437;77;20953;-76
2022/07/16 04:33:50;;;;;;;6.45;3.98;;;;;;;13.56;64.33;100609.36;3522359;77;20914;-76
2022/07/16 04:38:42;;;;;;;5.00;4.45;;;;;;;13.68;64.10;100606.78;3594475;77;20957;-76
2022/07/16 04:43:34;;;;;;;5.28;3.42;;;;;;;13.87;64.08;100627.72;3576004;77;21765;-77
2022/07/16 04:48:27;;;;;;;6.20;4.12;;;;;;;14.05;63.66;100625.12;3610401;77;21003;-77
2022/07/16 04:53:19;;;;;;;8.58;3.70;;;;;;;14.30;63.50;100619.92;3557551;77;20919;-77
2022/07/16 04:58:11;;;;;;;6.78;2.92;;;;;;;14.41;62.95;100636.48;3582338;76;21575;-77
2022/07/16 05:03:04;;;;;;;6.25;3.35;;;;;;;14.43;62.36;100626.02;3590553;77;20958;-77
2022/07/16 05:07:57;;;;;;;3.90;2.55;;;;;;;14.56;62.52;100628.19;3613040;77;21218;-77
2022/07/16 05:12:49;;;;;;;4.75;3.17;;;;;;;14.64;62.18;100630.41;3575879;77;20965;-77
2022/07/16 05:17:41;;;;;;;5.72;2.30;;;;;;;14.73;62.33;100615.99;3593633;77;20950;-77
2022/07/16 05:22:33;;;;;;;3.02;2.20;;;;;;;14.84;61.89;100611.62;3577946;77;21651;-77
2022/07/16 05:27:25;;;;;;;2.80;1.90;;;;;;;15.06;62.28;100620.73;3589745;77;21234;-77
2022/07/16 05:32:17;;;;;;;4.08;2.55;;;;;;;15.24;61.38;100615.42;3540418;77;21002;-77
2022/07/16 05:37:09;;;;;;;6.28;2.10;;;;;;;15.44;61.20;100614.47;3536674;77;21008;-77
2022/07/16 05:42:02;;;;;;;4.72;1.72;;;;;;;15.61;60.57;100617.89;3583314;77;20954;-77
2022/07/16 05:46:54;;;;;;;4.40;2.00;;;;;;;15.72;60.28;100609.96;3529806;77;21605;-77
2022/07/16 05:51:46;;;;;;;4.58;2.12;;;;;;;15.79;59.68;100606.45;3515121;77;20965;-77
2022/07/16 05:56:38;;;;;;;3.50;2.30;;;;;;;15.94;60.10;100602.85;3607942;77;21083;-77
2022/07/16 06:01:31;;;;;;;8.08;2.92;;;;;;;16.04;59.37;100600.16;3543844;77;21662;-77
2022/07/16 06:06:24;;;;;;;3.77;2.10;;;;;;;16.20;59.40;100588.66;3567105;77;20929;-77
2022/07/16 06:11:16;;;;;;;5.40;2.37;;;;;;;16.43;58.66;100590.23;3592776;77;21404;-77
2022/07/16 06:16:08;;;;;;;6.62;3.33;;;;;;;16.53;58.70;100585.33;3548795;77;21535;-77
2022/07/16 06:21:01;;;;;;;8.15;2.15;;;;;;;16.68;58.33;100589.55;3596237;77;21538;-77
2022/07/16 06:25:53;;;;;;;3.62;1.52;;;;;;;16.86;57.87;100591.14;3577272;77;21031;-77
2022/07/16 06:30:45;;;;;;;4.55;2.10;;;;;;;17.02;57.85;100590.07;3542937;78;21252;-77
2022/07/16 06:35:37;;;;;;;5.67;2.10;;;;;;;17.24;57.61;100593.75;3655966;76;20922;-77
2022/07/16 06:40:30;;;;;;;5.15;2.27;;;;;;;17.47;56.43;100587.78;3589826;77;20926;-77
2022/07/16 06:45:22;;;;;;;2.55;1.80;;;;;;;17.62;56.11;100588.00;3587468;77;22715;-77
2022/07/16 06:50:15;;;;;;;2.22;1.57;;;;;;;17.74;55.44;100588.25;3584660;78;20934;-77
2022/07/16 06:55:07;;;;;;;5.92;2.02;;;;;;;17.71;56.29;100584.38;3646230;77;21020;-77
2022/07/16 06:59:59;;;;;;;3.87;1.90;;;;;;;17.95;55.38;100583.61;3615086;77;20961;-77
2022/07/16 07:04:51;;;;;;;6.67;2.92;;;;;;;18.15;54.99;100576.70;3552327;77;20993;-77
2022/07/16 07:09:44;;;;;;;5.92;1.55;;;;;;;18.48;54.06;100573.95;3547678;78;21642;-78
2022/07/16 07:14:36;;;;;;;3.77;1.87;;;;;;;18.77;53.33;100575.17;3613976;77;21397;-77
2022/07/16 07:19:28;;;;;;;6.50;1.82;;;;;;;19.19;52.47;100567.32;3572607;77;20945;-75
2022/07/16 07:24:21;;;;;;;3.42;1.82;;;;;;;19.96;50.51;100564.30;3476281;79;20943;-75
2022/07/16 07:29:14;;;;;;;8.20;1.87;;;;;;;20.59;49.68;100561.86;3486235;79;39941;-75
2022/07/16 07:34:06;;;;;;;5.97;1.80;;;;;;;20.75;49.20;100560.55;3534830;79;21039;-75
2022/07/16 07:38:58;;;;;;;7.53;1.70;;;;;;;21.43;48.40;100561.23;3537876;79;20943;-75
2022/07/16 07:43:50;;;;;;;6.62;2.15;;;;;;;22.21;47.86;100556.11;3531672;79;20967;-75
2022/07/16 07:48:42;;;;;;;4.17;2.30;;;;;;;22.70;46.32;100546.93;3433302;79;21461;-75
2022/07/16 07:53:36;;;;;;;3.90;2.50;;;;;;;22.50;46.48;100545.44;3509164;79;21428;-75
2022/07/16 07:58:28;;;;;;;2.62;1.40;;;;;;;22.70;46.21;100545.61;3458930;79;20983;-75
2022/07/16 08:03:21;;;;;;;3.37;1.62;;;;;;;22.85;45.23;100545.03;3535252;79;20884;-75
2022/07/16 08:08:14;;;;;;;2.47;1.40;;;;;;;22.94;45.01;100537.67;3559431;79;20993;-75
2022/07/16 08:13:06;;;;;;;4.03;1.52;;;;;;;22.88;44.56;100543.21;3509016;78;21394;-75
2022/07/16 08:17:58;;;;;;;2.25;1.27;;;;;;;22.95;44.12;100547.36;3484622;79;20967;-75
2022/07/16 08:22:50;;;;;;;4.67;1.67;;;;;;;23.79;42.63;100532.63;3556182;79;21999;-76
2022/07/16 08:27:42;;;;;;;3.55;1.50;;;;;;;26.63;39.08;100515.90;3599880;77;20910;-76
2022/07/16 08:32:35;;;;;;;2.67;1.15;;;;;;;28.48;36.89;100522.78;3539695;77;20915;-76
2022/07/16 08:37:41;;;;;;;2.33;1.40;;;;;;;27.80;37.09;100513.05;3577690;77;20969;-76
2022/07/16 08:42:35;;;;;;;2.90;1.32;;;;;;;27.55;36.28;100513.12;3578164;77;21532;-76
2022/07/16 08:47:30;;;;;;;1.37;1.20;;;;;;;26.54;36.93;100513.70;3557828;77;21413;-76
2022/07/16 08:52:26;;;;;;;2.87;1.33;;;;;;;25.99;37.08;100513.41;3550868;77;21001;-76
2022/07/16 08:57:20;;;;;;;2.98;1.65;;;;;;;26.17;36.32;100507.61;3552579;79;20923;-75
2022/07/16 09:02:13;;;;;;;4.25;1.32;;;;;;;25.37;36.10;100511.54;3573912;77;20879;-75
2022/07/16 09:07:05;;;;;;;2.10;1.07;;;;;;;25.12;36.24;100503.36;3597284;77;21200;-75
2022/07/16 09:11:57;;;;;;;1.80;1.20;;;;;;;25.49;36.04;100491.47;3573134;77;21000;-76
2022/07/16 09:16:53;;;;;;;4.37;1.47;;;;;;;25.88;36.39;100490.43;3553967;79;21539;-75
2022/07/16 09:22:07;;;;;;;2.40;1.10;;;;;;;26.44;35.30;100489.80;3583398;78;21427;-76
2022/07/16 09:27:03;;;;;;;2.17;1.37;;;;;;;25.87;34.89;100494.87;3573430;77;21000;-75
2022/07/16 09:31:55;;;;;;;1.30;1.05;;;;;;;25.48;34.24;100498.56;3540383;77;20969;-75
2022/07/16 09:36:57;;;;;;;1.72;1.52;;;;;;;25.64;34.44;100485.84;3568921;77;21464;-75
2022/07/16 09:41:49;;;;;;;2.22;1.30;;;;;;;25.49;34.92;100492.32;3626406;77;20961;-75
2022/07/16 09:47:04;;;;;;;3.15;1.12;;;;;;;24.95;35.79;100497.98;3604127;77;20988;-75
2022/07/16 09:51:57;;;;;;;2.90;1.47;;;;;;;24.83;35.90;100489.23;3575267;78;20950;-75
2022/07/16 09:57:06;;;;;;;1.85;0.95;;;;;;;25.07;35.22;100489.88;3601945;77;21079;-75
2022/07/16 10:01:58;;;;;;;1.37;1.05;;;;;;;24.25;36.10;100486.91;3575561;77;21007;-75
2022/07/16 10:06:50;;;;;;;3.70;1.07;;;;;;;24.82;36.08;100492.82;3629473;77;21187;-75
2022/07/16 10:11:43;;;;;;;2.50;1.35;;;;;;;24.74;36.01;100484.73;3563460;76;21000;-75
2022/07/16 10:16:47;;;;;;;2.42;1.20;;;;;;;25.17;35.71;100482.34;3539237;77;21491;-75
2022/07/16 10:21:41;;;;;;;1.57;1.17;;;;;;;24.14;36.39;100479.38;3539207;77;21017;-75
2022/07/16 10:26:35;;;;;;;3.85;1.60;;;;;;;23.80;37.30;100475.97;3547311;78;21005;-75
2022/07/16 10:32:27;;;;;;;3.42;1.32;;;;;;;24.72;36.44;100466.66;3562254;79;20962;-75
2022/07/16 10:36:53;;;;;;;2.35;1.30;;;;;;;28.26;34.01;100453.73;3556276;77;20922;-75
2022/07/16 10:41:58;;;;;;;3.35;1.37;;;;;;;26.27;34.68;100453.84;3583696;77;21476;-75
2022/07/16 10:47:03;;;;;;;3.20;1.37;;;;;;;24.65;34.81;100456.39;3515595;77;21046;-75
2022/07/16 10:52:14;;;;;;;3.85;1.40;;;;;;;24.45;35.55;100445.28;3563410;77;21032;-75
2022/07/16 10:57:08;;;;;;;1.62;1.20;;;;;;;24.42;35.63;100438.32;3578571;77;20934;-75
2022/07/16 11:02:05;;;;;;;3.90;1.50;;;;;;;24.42;35.63;100433.48;3511976;77;21440;-75
2022/07/16 11:07:02;;;;;;;2.58;1.20;;;;;;;24.63;36.29;100435.19;3585592;79;21424;-75
2022/07/16 11:11:56;;;;;;;3.15;1.10;;;;;;;24.54;35.63;100428.50;3535111;77;21452;-75
2022/07/16 11:16:51;;;;;;;4.80;1.52;;;;;;;24.80;35.88;100422.91;3558190;79;20914;-75
2022/07/16 11:22:00;;;;;;;4.15;1.57;;;;;;;24.54;35.81;100417.02;3553961;77;20973;-75
2022/07/16 11:26:54;;;;;;;6.50;1.47;;;;;;;24.43;35.75;100421.46;3592105;78;21086;-74
2022/07/16 11:31:47;;;;;;;4.80;1.17;;;;;;;24.22;35.37;100419.30;3583065;77;20923;-75
2022/07/16 11:36:43;;;;;;;2.65;1.20;;;;;;;23.53;35.98;100419.10;3460598;81;21006;-75
2022/07/16 11:41:39;;;;;;;1.77;1.00;;;;;;;23.21;36.74;100419.98;3514224;80;20936;-75
2022/07/16 11:46:31;;;;;;;;;;;;;;;23.02;36.74;100411.86;3575591;78;20939;-75
2022/07/16 11:51:25;;;;;;;1.12;1.02;;;;;;;23.00;37.08;100411.50;3555759;78;20118;-75
2022/07/16 11:56:36;;;;;;;2.75;1.50;;;;;;;22.83;36.93;100417.00;3477075;81;21370;-75
2022/07/16 12:01:37;;;;;;;2.87;1.30;;;;;;;22.68;37.28;100408.34;3493189;81;20967;-75
2022/07/16 12:06:29;;;;;;;3.47;1.22;;;;;;;22.54;37.88;100406.67;3475002;79;21524;-75
2022/07/16 12:11:31;;;;;;;1.82;1.22;;;;;;;22.43;37.85;100406.60;3492776;79;21003;-75
2022/07/16 12:16:25;;;;;;;3.60;1.65;;;;;;;22.27;38.06;100406.77;3524756;81;20927;-75
2022/07/16 12:21:26;;;;;;;5.35;1.30;;;;;;;22.54;38.33;100405.34;3499878;81;20963;-75
2022/07/16 12:26:30;;;;;;;3.62;1.30;;;;;;;23.25;37.53;100395.97;3449276;80;20994;-75
2022/07/16 12:31:32;;;;;;;2.37;1.50;;;;;;;23.64;37.37;100388.61;3497074;80;21006;-75
2022/07/16 12:36:34;;;;;;;4.05;1.45;;;;;;;23.86;37.53;100383.26;3441771;81;21226;-75
2022/07/16 12:41:40;;;;;;;2.22;1.20;;;;;;;24.34;37.11;100388.64;3424086;80;21047;-75
2022/07/16 12:46:46;;;;;;;2.13;1.77;;;;;;;24.19;35.97;100378.73;3459883;81;21209;-75
2022/07/16 12:51:46;;;;;;;3.08;1.42;;;;;;;24.33;35.96;100369.67;3468879;80;21002;-75
2022/07/16 13:01:50;;;;;;;3.67;2.00;;;;;;;23.20;37.35;100359.90;3468609;81;21201;-75
2022/07/16 13:06:44;;;;;;;3.37;1.50;;;;;;;22.70;37.06;100354.81;3464417;81;20955;-75
2022/07/16 13:11:38;;;;;;;2.35;1.62;;;;;;;22.35;37.77;100366.75;3447438;80;21516;-74
2022/07/16 13:16:30;;;;;;;1.80;0.95;;;;;;;22.17;37.74;100353.23;3470927;82;22073;-74
2022/07/16 13:21:24;;;;;;;1.65;1.22;;;;;;;21.93;38.88;100356.77;3455622;80;21525;-74
2022/07/16 13:26:17;;;;;;;4.75;1.50;;;;;;;21.61;39.09;100369.37;3441763;80;21492;-75
2022/07/16 13:31:10;;;;;;;2.45;1.20;;;;;;;21.20;41.97;100390.94;3499018;80;22011;-76
2022/07/16 13:36:02;;;;;;;2.47;1.30;;;;;;;20.66;44.20;100422.14;3476813;81;21453;-77
2022/07/16 13:40:54;;;;;;;3.50;1.87;;;;;;;19.74;47.97;100475.13;3422100;80;20947;-76
2022/07/16 13:45:48;;;;;;;3.35;1.57;;;;;;;18.45;51.60;100483.18;3476605;80;20995;-75
2022/07/16 13:50:41;;;;;;;5.17;1.60;;;;;;;17.76;53.49;100504.98;3431021;80;20999;-76
2022/07/16 13:55:35;;;;;;;4.05;2.62;;;;;;;17.31;56.05;100514.84;3447021;81;20970;-76
2022/07/16 14:00:29;;;;;;;4.60;1.87;;;;;;;17.17;56.58;100510.66;3463362;80;20888;-77
2022/07/16 14:05:23;;;;;;;2.45;2.02;;;;;;;16.99;57.41;100517.91;3533786;79;20951;-76
2022/07/16 14:10:17;;;;;;;2.33;1.80;;;;;;;17.04;58.28;100510.81;3438384;80;21461;-75
2022/07/16 14:15:11;;;;;;;2.40;2.20;;;;;;;17.15;58.59;100503.67;3520468;79;21026;-74
2022/07/16 14:20:06;;;;;;;2.37;1.80;;;;;;;17.30;59.07;100501.73;3468130;79;21054;-75
2022/07/16 14:24:59;;;;;;;3.08;1.82;;;;;;;17.48;59.49;100500.59;3473530;79;20959;-75
2022/07/16 14:29:52;;;;;;;3.87;1.80;;;;;;;17.52;59.56;100492.61;3481330;79;20936;-74
2022/07/16 14:34:44;;;;;;;4.12;2.10;;;;;;;17.52;60.07;100489.98;3471411;81;21782;-75
2022/07/16 14:39:36;;;;;;;2.30;1.82;;;;;;;17.44;60.35;100495.83;3459717;81;20920;-75
2022/07/16 14:44:28;;;;;;;2.27;2.00;;;;;;;17.53;60.79;100484.31;3511651;79;20931;-75
2022/07/16 14:49:21;;;;;;;2.40;1.70;;;;;;;17.65;61.02;100493.74;3535679;79;21444;-75
2022/07/16 14:54:13;;;;;;;2.42;1.87;;;;;;;17.87;61.05;100487.74;3565395;78;21021;-75
2022/07/16 14:59:05;;;;;;;3.22;1.52;;;;;;;18.10;61.19;100483.41;3621355;77;21954;-75
2022/07/16 15:03:58;;;;;;;4.90;1.60;;;;;;;18.37;60.79;100470.60;3559970;77;20939;-75
2022/07/16 15:08:51;;;;;;;6.35;1.87;;;;;;;18.53;61.12;100467.23;3575963;77;20893;-75
2022/07/16 15:13:44;;;;;;;1.90;1.70;;;;;;;18.76;60.54;100457.55;3527215;78;20938;-75
2022/07/16 15:18:36;;;;;;;2.17;1.47;;;;;;;18.82;60.54;100469.32;3598634;77;20942;-75
2022/07/16 15:23:28;;;;;;;3.42;2.55;;;;;;;18.87;60.98;100462.19;3577288;78;20938;-75
2022/07/16 15:28:20;;;;;;;1.90;1.22;;;;;;;19.20;61.33;100446.52;3547980;77;21416;-75
2022/07/16 15:38:23;;;;;;;3.52;1.50;;;;;;;19.01;60.74;100457.49;3575931;77;20950;-75
2022/07/16 15:43:16;;;;;;;2.47;1.20;;;;;;;18.44;60.37;100459.09;3527954;77;20946;-75
2022/07/16 15:48:08;;;;;;;1.07;0.95;;;;;;;18.11;61.79;100503.53;3572670;77;21491;-77
2022/07/16 15:53:01;;;;;;;0.95;0.50;;;;;;;17.33;59.89;100550.27;3602033;77;21008;-75
2022/07/16 15:57:54;;;;;;;4.55;0.82;;;;;;;16.35;58.87;100545.25;3582025;77;20950;-79
2022/07/16 16:02:46;;;;;;;0.93;0.62;;;;;;;15.81;60.07;100537.84;3521634;77;20946;-78
2022/07/16 16:07:39;;;;;;;2.95;0.90;;;;;;;15.51;60.66;100519.23;3554670;79;20990;-79
2022/07/16 16:12:31;;;;;;;1.90;0.82;;;;;;;15.43;61.19;100510.54;3587152;77;21751;-78
2022/07/16 16:17:25;;;;;;;0.70;0.53;;;;;;;15.30;61.45;100532.46;3628194;77;20942;-78
2022/07/16 16:22:17;;;;;;;3.22;0.88;;;;;;;15.20;61.95;100540.38;3572144;77;21490;-78
2022/07/16 16:27:09;;;;;;;0.90;0.80;;;;;;;15.14;62.30;100535.59;3497579;79;21579;-80
2022/07/16 16:32:01;;;;;;;1.32;1.00;;;;;;;15.04;62.67;100539.98;3515274;78;21048;-78
2022/07/16 16:36:54;;;;;;;4.60;1.50;;;;;;;14.96;62.87;100547.02;3509142;79;21076;-78
2022/07/16 16:41:46;;;;;;;0.98;0.68;;;;;;;14.82;63.49;100506.04;3532603;78;21571;-78
2022/07/16 16:46:38;;;;;;;0.60;0.60;;;;;;;14.79;63.58;100513.93;3512884;79;21052;-78
2022/07/16 16:51:30;;;;;;;1.15;0.78;;;;;;;14.78;63.82;100505.63;3533097;78;20997;-78
2022/07/16 16:56:23;;;;;;;1.65;0.98;;;;;;;14.84;64.20;100507.34;3485164;80;20959;-78
2022/07/16 17:01:15;;;;;;;1.55;0.80;;;;;;;14.90;64.25;100523.05;3508316;78;21001;-78
2022/07/16 17:06:07;;;;;;;2.50;2.00;;;;;;;15.13;64.40;100515.09;3483596;78;21590;-78
2022/07/16 17:11:00;;;;;;;3.42;2.00;;;;;;;15.58;64.02;100509.59;3548585;78;21002;-78
2022/07/16 17:15:52;;;;;;;1.70;1.55;;;;;;;15.98;63.83;100510.16;3487909;80;20929;-78
2022/07/16 17:20:44;;;;;;;1.60;1.50;;;;;;;15.95;63.43;100496.21;3522485;80;20975;-78
2022/07/16 17:25:37;;;;;;;2.42;1.40;;;;;;;15.73;63.80;100505.98;3512213;77;20937;-78
2022/07/16 17:30:29;;;;;;;1.30;1.10;;;;;;;15.46;63.86;100513.59;3560511;77;20918;-78
2022/07/16 17:35:21;;;;;;;1.17;1.00;;;;;;;15.43;64.33;100511.44;3552063;77;21102;-78
2022/07/16 17:40:14;;;;;;;1.57;1.35;;;;;;;15.69;64.31;100506.89;3500217;78;20958;-78
2022/07/16 17:45:07;;;;;;;0.95;0.90;;;;;;;15.85;64.14;100512.47;3612676;77;20935;-78
2022/07/16 17:49:59;;;;;;;1.62;1.47;;;;;;;15.91;63.73;100524.66;3568081;77;21532;-77
2022/07/16 17:54:52;;;;;;;1.60;1.10;;;;;;;15.73;63.99;100536.98;3530443;77;21037;-78
2022/07/16 17:59:46;;;;;;;1.62;0.93;;;;;;;15.62;64.01;100550.16;3582759;77;21024;-77
2022/07/16 18:04:38;;;;;;;1.20;1.07;;;;;;;15.47;64.49;100547.66;3602571;77;20994;-77
2022/07/16 18:09:31;;;;;;;1.52;0.93;;;;;;;15.19;64.48;100550.41;3515138;77;20966;-78
2022/07/16 18:14:24;;;;;;;1.42;1.17;;;;;;;14.93;64.80;100558.35;3532033;77;21080;-77
2022/07/16 18:19:16;;;;;;;2.35;1.00;;;;;;;14.82;65.31;100570.61;3589073;77;20935;-77
2022/07/16 18:24:10;;;;;;;1.22;1.12;;;;;;;14.67;65.39;100578.08;3559996;77;20985;-77
2022/07/16 18:29:03;;;;;;;2.27;1.72;;;;;;;14.58;65.80;100580.27;3585968;77;21001;-77
2022/07/16 18:33:56;;;;;;;3.37;2.72;;;;;;;14.45;65.75;100593.77;3543082;77;20988;-77
2022/07/16 18:38:48;;;;;;;2.50;2.30;;;;;;;14.38;65.83;100602.50;3575316;77;21009;-77
2022/07/16 18:43:42;;;;;;;3.35;1.67;;;;;;;14.25;65.76;100605.97;3601638;77;20996;-77
2022/07/16 18:48:34;;;;;;;1.95;1.70;;;;;;;14.29;65.93;100615.14;3624208;77;20925;-77
2022/07/16 18:53:27;;;;;;;1.40;1.07;;;;;;;14.30;65.94;100612.08;3530185;77;21036;-77
2022/07/16 18:58:19;;;;;;;2.10;1.90;;;;;;;14.28;65.84;100623.84;3598298;77;21220;-77
2022/07/16 19:03:11;;;;;;;5.62;3.75;;;;;;;14.21;66.04;100623.84;3625662;78;21435;-77
2022/07/16 19:08:05;;;;;;;1.70;1.10;;;;;;;14.22;65.75;100632.14;3581562;77;21001;-75
2022/07/16 19:12:57;;;;;;;1.25;0.90;;;;;;;14.09;65.19;100641.69;3541144;77;21005;-75
2022/07/16 19:17:49;;;;;;;1.22;0.82;;;;;;;13.98;64.71;100639.05;3570093;77;20908;-76
2022/07/16 19:22:42;;;;;;;3.67;1.15;;;;;;;13.82;64.84;100642.07;3573450;77;20982;-76
2022/07/16 19:27:34;;;;;;;0.60;0.50;;;;;;;13.76;64.76;100646.43;3517069;79;21242;-76
2022/07/16 19:32:26;;;;;;;1.10;0.60;;;;;;;13.72;64.64;100654.25;3552192;78;20908;-75
2022/07/16 19:37:18;;;;;;;1.85;0.72;;;;;;;13.70;64.17;100645.55;3554027;79;20896;-75
2022/07/16 19:42:10;;;;;;;2.00;1.80;;;;;;;13.69;64.22;100646.39;3561892;79;20955;-76
2022/07/16 19:47:03;;;;;;;1.98;1.12;;;;;;;13.54;64.11;100645.92;3513442;78;21383;-76
2022/07/16 19:51:55;;;;;;;1.15;0.80;;;;;;;13.56;64.33;100640.70;3429024;79;21769;-76
2022/07/16 20:01:58;;;;;;;0.78;0.50;;;;;;;13.61;64.54;100649.44;3544557;79;21006;-77
2022/07/16 20:06:50;;;;;;;0.70;0.70;;;;;;;13.63;64.37;100647.70;3456515;79;20967;-76
2022/07/16 20:11:42;;;;;;;1.35;0.75;;;;;;;13.52;64.22;100647.66;3497587;79;20919;-77
2022/07/16 20:16:35;;;;;;;2.30;0.80;;;;;;;13.47;64.94;100651.98;3514619;79;20967;-78
2022/07/16 20:21:28;;;;;;;3.08;0.80;;;;;;;13.35;65.09;100663.24;3541251;79;21054;-79
2022/07/16 20:26:20;;;;;;;1.00;0.90;;;;;;;13.25;65.57;100664.05;3482695;78;21148;-80
2022/07/16 20:31:12;;;;;;;2.08;1.00;;;;;;;13.18;66.25;100664.89;3502938;78;21852;-78
2022/07/16 20:36:05;;;;;;;1.67;1.00;;;;;;;13.16;66.50;100661.37;3554123;77;20924;-77
2022/07/16 20:40:58;;;;;;;2.15;1.30;;;;;;;13.09;66.78;100662.20;3516161;78;21627;-77
2022/07/16 20:45:50;;;;;;;1.20;1.10;;;;;;;13.07;67.28;100662.62;3616023;77;21005;-77
2022/07/16 20:50:43;;;;;;;2.42;0.70;;;;;;;13.10;67.50;100670.48;3537261;77;21421;-77
2022/07/16 20:55:35;;;;;;;0.93;0.68;;;;;;;13.04;67.77;100682.17;3563290;77;20996;-77
2022/07/16 21:00:28;;;;;;;1.42;0.93;;;;;;;13.02;68.17;100682.19;3589386;77;21058;-77
2022/07/16 21:05:20;;;;;;;2.25;0.80;;;;;;;13.00;68.54;100694.33;3559981;78;21887;-78
2022/07/16 21:10:12;;;;;;;1.30;1.00;;;;;;;13.02;68.75;100700.87;3559897;77;20965;-77
2022/07/16 21:15:05;;;;;;;3.87;1.90;;;;;;;12.92;68.92;100692.98;3610422;77;21522;-77
2022/07/16 21:19:57;;;;;;;1.62;1.30;;;;;;;12.97;69.42;100697.80;3581103;77;20887;-77
2022/07/16 21:24:49;;;;;;;1.42;1.00;;;;;;;13.01;69.55;100704.36;3539071;77;20977;-77
2022/07/16 21:29:41;;;;;;;3.33;1.10;;;;;;;13.03;69.60;100702.63;3486797;78;21009;-77
2022/07/16 21:34:34;;;;;;;2.05;0.98;;;;;;;12.99;69.90;100717.39;3599013;77;20977;-77
2022/07/16 21:39:26;;;;;;;1.20;0.72;;;;;;;13.01;69.98;100716.97;3557149;78;20971;-77
2022/07/16 21:44:18;;;;;;;2.75;1.00;;;;;;;13.07;70.08;100717.44;3503057;79;21316;-77
2022/07/16 21:49:10;;;;;;;3.72;1.10;;;;;;;13.06;70.37;100717.02;3508287;79;20935;-77
2022/07/16 21:54:02;;;;;;;2.83;1.20;;;;;;;13.04;70.44;100717.00;3519089;79;21425;-77
2022/07/16 21:58:55;;;;;;;3.40;1.22;;;;;;;13.07;70.27;100725.27;3473748;79;21034;-77
2022/07/16 22:03:47;;;;;;;4.08;2.42;;;;;;;13.02;70.50;100729.17;3464959;80;20935;-77
2022/07/16 22:08:39;;;;;;;2.55;1.30;;;;;;;13.06;70.74;100733.54;3570605;79;21010;-77
2022/07/16 22:13:31;;;;;;;2.08;0.95;;;;;;;13.06;70.70;100732.67;3439098;82;20935;-77
2022/07/16 22:18:23;;;;;;;0.80;0.80;;;;;;;13.02;70.83;100747.44;3531083;79;21851;-77
2022/07/16 22:23:16;;;;;;;2.62;1.10;;;;;;;13.07;71.33;100745.70;3571617;78;21009;-77
2022/07/16 22:28:08;;;;;;;1.10;1.00;;;;;;;13.12;71.14;100747.06;3451685;80;20918;-77
2022/07/16 22:33:00;;;;;;;2.52;1.22;;;;;;;13.19;71.14;100747.98;3474386;80;20978;-77
2022/07/16 22:37:52;;;;;;;2.27;1.00;;;;;;;13.21;71.34;100751.03;3489158;79;20986;-77
2022/07/16 22:42:44;;;;;;;1.92;1.17;;;;;;;13.22;71.52;100752.80;3520906;78;21479;-77
2022/07/16 22:47:37;;;;;;;3.17;1.25;;;;;;;13.22;72.11;100754.09;3549411;77;22429;-77
2022/07/16 22:52:30;;;;;;;3.72;2.12;;;;;;;13.19;71.98;100757.98;3555133;77;21474;-79
2022/07/16 22:57:22;;;;;;;2.52;1.47;;;;;;;13.18;72.08;100761.48;3601842;77;20924;-79
2022/07/16 23:02:15;;;;;;;2.12;1.20;;;;;;;13.19;72.28;100763.20;3544750;77;20969;-79